createdAt,value
2023-03-08T00:01:26.246Z,14.85
2023-03-08T00:03:55.471Z,8.10
2023-03-08T00:06:26.341Z,12.27
2023-03-08T00:08:58.768Z,11.23
2023-03-08T00:11:28.363Z,17.23
2023-03-08T00:13:57.065Z,12.02
2023-03-08T00:16:25.624Z,17.80
2023-03-08T00:18:54.130Z,8.85
2023-03-08T00:21:22.957Z,7.90
2023-03-08T00:23:54.973Z,11.98
2023-03-08T00:26:24.764Z,9.05
2023-03-08T00:28:53.468Z,15.35
2023-03-08T00:31:22.024Z,7.45
2023-03-08T00:33:54.838Z,18.58
2023-03-08T00:36:23.740Z,8.57
2023-03-08T00:38:52.631Z,8.73
2023-03-08T00:41:21.301Z,8.77
2023-03-08T00:43:52.101Z,5.40
2023-03-08T00:46:20.807Z,9.50
2023-03-08T00:48:52.345Z,6.88
2023-03-08T00:51:22.079Z,14.07
2023-03-08T00:53:50.793Z,8.77
2023-03-08T00:56:19.250Z,6.60
2023-03-08T00:58:47.645Z,12.50
2023-03-08T01:01:20.229Z,8.38
2023-03-08T01:03:48.789Z,10.60
2023-03-08T01:06:17.684Z,5.88
2023-03-08T01:08:46.339Z,11.40
2023-03-08T01:11:22.171Z,16.92
2023-03-08T01:13:51.356Z,9.90
2023-03-08T01:16:25.355Z,11.90
2023-03-08T01:18:54.034Z,9.75
2023-03-08T01:21:22.705Z,11.05
2023-03-08T01:23:52.119Z,10.48
2023-03-08T01:26:24.349Z,6.85
2023-03-08T01:28:54.191Z,9.63
2023-03-08T01:31:26.566Z,14.68
2023-03-08T01:33:55.886Z,14.45
2023-03-08T01:36:27.303Z,9.52
2023-03-08T01:38:55.860Z,12.00
2023-03-08T01:41:28.440Z,8.50
2023-03-08T01:43:57.710Z,8.07
2023-03-08T01:46:29.855Z,8.35
2023-03-08T01:49:06.563Z,7.60
2023-03-08T01:51:40.903Z,8.30
2023-03-08T01:54:15.318Z,12.23
2023-03-08T01:56:46.173Z,7.28
2023-03-08T01:59:15.535Z,8.38
2023-03-08T02:01:46.633Z,11.15
2023-03-08T02:04:15.278Z,15.35
2023-03-08T02:06:45.534Z,12.80
2023-03-08T02:09:14.467Z,13.80
2023-03-08T02:11:44.722Z,8.57
2023-03-08T02:14:13.506Z,14.65
2023-03-08T02:16:42.085Z,8.02
2023-03-08T02:19:23.809Z,9.30
2023-03-08T02:21:52.647Z,9.70
2023-03-08T02:24:24.903Z,14.13
2023-03-08T02:27:01.674Z,9.23
2023-03-08T02:29:30.134Z,10.88
2023-03-08T02:31:58.704Z,13.35
2023-03-08T02:34:27.652Z,9.15
2023-03-08T02:36:57.726Z,10.00
2023-03-08T02:39:27.773Z,10.68
2023-03-08T02:41:56.449Z,13.50
2023-03-08T02:44:25.400Z,9.35
2023-03-08T02:46:54.641Z,7.40
2023-03-08T02:49:23.400Z,9.70
2023-03-08T02:51:51.813Z,11.32
2023-03-08T02:54:20.269Z,10.52
2023-03-08T02:56:50.383Z,8.98
2023-03-08T02:59:19.109Z,8.27
2023-03-08T03:01:47.641Z,9.85
2023-03-08T03:04:16.172Z,12.07
2023-03-08T03:06:44.806Z,13.65
2023-03-08T03:09:14.017Z,12.60
2023-03-08T03:11:43.241Z,10.02
2023-03-08T03:14:13.222Z,10.73
2023-03-08T03:16:41.806Z,8.20
2023-03-08T03:19:10.673Z,12.45
2023-03-08T03:21:41.007Z,13.40
2023-03-08T03:24:10.409Z,8.55
2023-03-08T03:26:41.458Z,10.40
2023-03-08T03:29:10.125Z,9.25
2023-03-08T03:31:41.785Z,18.05
2023-03-08T03:34:10.780Z,13.73
2023-03-08T03:36:39.440Z,16.73
2023-03-08T03:39:08.257Z,10.70
2023-03-08T03:41:36.975Z,13.48
2023-03-08T03:44:05.622Z,12.18
2023-03-08T03:46:34.091Z,9.55
2023-03-08T03:49:04.021Z,10.30
2023-03-08T03:51:33.088Z,16.75
2023-03-08T03:54:01.715Z,14.60
2023-03-08T03:56:30.330Z,15.95
2023-03-08T03:58:59.010Z,9.27
2023-03-08T04:01:30.255Z,10.25
2023-03-08T04:03:59.836Z,10.25
2023-03-08T04:06:32.508Z,12.70
2023-03-08T04:09:04.077Z,11.90
2023-03-08T04:11:37.409Z,12.93
2023-03-08T04:14:06.973Z,14.85
2023-03-08T04:16:37.682Z,10.23
2023-03-08T04:19:08.854Z,10.10
2023-03-08T04:21:39.079Z,9.85
2023-03-08T04:24:10.137Z,13.57
2023-03-08T04:26:38.812Z,9.85
2023-03-08T04:29:07.508Z,13.93
2023-03-08T04:31:37.272Z,11.60
2023-03-08T04:34:06.935Z,11.23
2023-03-08T04:36:35.620Z,11.02
2023-03-08T04:39:06.049Z,11.15
2023-03-08T04:41:34.706Z,14.55
2023-03-08T04:44:03.434Z,14.23
2023-03-08T04:46:32.036Z,15.10
2023-03-08T04:49:00.595Z,17.13
2023-03-08T04:51:29.110Z,19.40
2023-03-08T04:53:58.581Z,16.98
2023-03-08T04:56:28.769Z,13.55
2023-03-08T04:58:57.392Z,14.55
2023-03-08T05:01:26.246Z,19.85
2023-03-08T05:03:56.388Z,16.65
2023-03-08T05:06:27.340Z,19.58
2023-03-08T05:08:56.597Z,18.02
2023-03-08T05:11:30.205Z,19.75
2023-03-08T05:14:00.437Z,22.10
2023-03-08T05:16:29.570Z,21.80
2023-03-08T05:19:07.457Z,23.13
2023-03-08T05:21:36.014Z,23.15
2023-03-08T05:24:05.045Z,21.90
2023-03-08T05:26:36.150Z,30.33
2023-03-08T05:29:06.575Z,22.88
2023-03-08T05:31:36.695Z,27.38
2023-03-08T05:34:05.596Z,27.52
2023-03-08T05:36:35.908Z,25.90
2023-03-08T05:39:06.962Z,26.70
2023-03-08T05:41:37.178Z,34.30
2023-03-08T05:44:06.177Z,29.38
2023-03-08T05:46:35.005Z,29.85
2023-03-08T05:49:03.641Z,35.15
2023-03-08T05:51:32.242Z,37.50
2023-03-08T05:54:00.897Z,33.38
2023-03-08T05:56:29.807Z,34.50
2023-03-08T05:58:59.839Z,37.13
2023-03-08T06:01:30.048Z,45.90
2023-03-08T06:04:00.008Z,43.22
2023-03-08T06:06:29.476Z,43.10
2023-03-08T06:08:58.332Z,46.10
2023-03-08T06:11:27.376Z,47.05
2023-03-08T06:13:56.452Z,58.10
2023-03-08T06:16:29.666Z,47.55
2023-03-08T06:19:07.062Z,49.30
2023-03-08T06:21:35.794Z,56.10
2023-03-08T06:24:04.526Z,60.85
2023-03-08T06:26:33.480Z,75.90
2023-03-08T06:29:02.424Z,66.60
2023-03-08T06:31:34.563Z,70.35
2023-03-08T06:34:03.788Z,80.65
2023-03-08T06:36:32.459Z,73.43
2023-03-08T06:39:01.166Z,77.32
2023-03-08T06:41:30.638Z,71.32
2023-03-08T06:43:59.409Z,72.90
2023-03-08T06:46:28.015Z,74.28
2023-03-08T06:48:58.717Z,77.65
2023-03-08T06:51:27.265Z,69.78
2023-03-08T06:53:55.994Z,83.18
2023-03-08T06:56:25.524Z,81.03
2023-03-08T06:58:54.351Z,90.30
2023-03-08T07:01:23.385Z,78.75
2023-03-08T07:03:53.527Z,84.63
2023-03-08T07:06:23.938Z,86.55
2023-03-08T07:08:52.559Z,74.75
2023-03-08T07:11:21.421Z,90.13
2023-03-08T07:13:50.080Z,81.30
2023-03-08T07:16:20.763Z,86.45
2023-03-08T07:18:57.112Z,84.35
2023-03-08T07:21:27.675Z,85.05
2023-03-08T07:23:56.436Z,82.63
2023-03-08T07:26:24.879Z,81.50
2023-03-08T07:28:55.978Z,76.07
2023-03-08T07:31:26.652Z,73.28
2023-03-08T07:33:55.282Z,76.75
2023-03-08T07:36:23.919Z,76.03
2023-03-08T07:38:53.967Z,71.00
2023-03-08T07:41:23.258Z,74.85
2023-03-08T07:43:51.821Z,78.28
2023-03-08T07:46:20.548Z,80.65
2023-03-08T07:48:49.057Z,74.75
2023-03-08T07:51:17.687Z,74.13
2023-03-08T07:53:46.228Z,75.90
2023-03-08T07:56:16.087Z,75.97
2023-03-08T07:58:44.517Z,82.35
2023-03-08T08:01:14.383Z,81.03
2023-03-08T08:03:43.270Z,85.72
2023-03-08T08:06:12.159Z,80.22
2023-03-08T08:08:40.885Z,85.82
2023-03-08T08:11:13.837Z,82.40
2023-03-08T08:13:44.187Z,78.93
2023-03-08T08:16:12.628Z,79.40
2023-03-08T08:18:41.893Z,76.50
2023-03-08T08:21:14.672Z,82.25
2023-03-08T08:23:44.075Z,82.82
2023-03-08T08:26:15.779Z,78.22
2023-03-08T08:28:47.627Z,75.68
2023-03-08T08:31:19.366Z,79.13
2023-03-08T08:33:48.345Z,78.72
2023-03-08T08:36:19.717Z,78.05
2023-03-08T08:38:48.839Z,77.63
2023-03-08T08:41:19.742Z,75.07
2023-03-08T08:43:50.923Z,71.95
2023-03-08T08:46:20.447Z,79.15
2023-03-08T08:48:48.925Z,79.63
2023-03-08T08:51:17.635Z,70.40
2023-03-08T08:53:46.821Z,65.28
2023-03-08T08:56:26.614Z,67.30
2023-03-08T08:58:58.503Z,62.67
2023-03-08T09:01:30.083Z,60.45
2023-03-08T09:04:02.346Z,66.32
2023-03-08T09:06:31.323Z,61.92
2023-03-08T09:09:01.827Z,56.10
2023-03-08T09:11:30.664Z,58.67
2023-03-08T09:14:02.705Z,57.92
2023-03-08T09:16:35.835Z,60.55
2023-03-08T09:19:06.302Z,57.63
2023-03-08T09:21:35.596Z,55.28
2023-03-08T09:24:06.697Z,62.33
2023-03-08T09:26:35.689Z,49.30
2023-03-08T09:29:07.882Z,45.88
2023-03-08T09:31:39.214Z,49.13
2023-03-08T09:34:10.271Z,44.13
2023-03-08T09:36:40.254Z,39.10
2023-03-08T09:39:10.292Z,38.10
2023-03-08T09:41:55.576Z,40.05
2023-03-08T09:45:07.459Z,38.45
2023-03-08T09:47:47.103Z,36.15
2023-03-08T09:50:41.313Z,34.38
2023-03-08T09:53:22.495Z,36.50
2023-03-08T09:55:57.987Z,37.72
2023-03-08T09:58:36.287Z,36.70
2023-03-08T10:01:23.445Z,37.40
2023-03-08T10:04:17.679Z,38.25
2023-03-08T10:06:58.016Z,34.25
2023-03-08T10:09:34.569Z,34.42
2023-03-08T10:12:19.246Z,35.53
2023-03-08T10:14:50.946Z,34.35
2023-03-08T10:17:26.395Z,35.58
2023-03-08T10:20:01.232Z,33.10
2023-03-08T10:22:34.344Z,41.95
2023-03-08T10:25:06.584Z,39.17
2023-03-08T10:27:36.820Z,41.13
2023-03-08T10:30:17.016Z,40.40
2023-03-08T10:32:56.022Z,34.97
2023-03-08T10:35:34.796Z,34.35
2023-03-08T10:38:04.409Z,37.28
2023-03-08T10:40:32.931Z,32.42
2023-03-08T10:43:07.352Z,29.85
2023-03-08T10:45:36.217Z,28.50
2023-03-08T10:48:07.784Z,31.08
2023-03-08T10:50:38.679Z,31.65
2023-03-08T10:53:19.112Z,32.03
2023-03-08T10:55:50.298Z,30.52
2023-03-08T10:58:35.792Z,28.83
2023-03-08T11:01:09.120Z,30.38
2023-03-08T11:03:39.477Z,32.47
2023-03-08T11:06:16.967Z,27.30
2023-03-08T11:08:55.282Z,26.35
2023-03-08T11:11:24.283Z,27.88
2023-03-08T11:13:56.572Z,27.30
2023-03-08T11:17:05.216Z,24.17
2023-03-08T11:20:18.836Z,24.92
2023-03-08T11:23:05.465Z,24.70
2023-03-08T11:25:46.399Z,25.90
2023-03-08T11:28:58.960Z,24.80
2023-03-08T11:31:37.132Z,25.05
2023-03-08T11:34:25.139Z,25.25
2023-03-08T11:37:03.975Z,28.85
2023-03-08T11:39:37.121Z,26.17
2023-03-08T11:42:19.744Z,21.05
2023-03-08T11:45:07.948Z,27.63
2023-03-08T11:48:23.227Z,21.60
2023-03-08T11:51:01.288Z,26.58
2023-03-08T11:53:46.205Z,25.30
2023-03-08T11:56:46.626Z,23.07
2023-03-08T11:59:34.265Z,26.00
2023-03-08T12:02:13.179Z,26.33
2023-03-08T12:04:49.328Z,27.30
2023-03-08T12:07:22.517Z,27.40
2023-03-08T12:10:00.703Z,31.40
2023-03-08T12:12:38.449Z,27.15
2023-03-08T12:15:27.828Z,26.00
2023-03-08T12:18:06.532Z,25.35
2023-03-08T12:20:41.656Z,26.58
2023-03-08T12:23:22.865Z,31.00
2023-03-08T12:26:01.513Z,26.35
2023-03-08T12:28:35.979Z,30.55
2023-03-08T12:31:27.942Z,25.97
2023-03-08T12:34:00.422Z,29.45
2023-03-08T12:36:40.600Z,29.52
2023-03-08T12:39:26.541Z,28.70
2023-03-08T12:42:03.357Z,27.05
2023-03-08T12:44:32.839Z,26.80
2023-03-08T12:47:04.664Z,25.13
2023-03-08T12:49:38.001Z,29.08
2023-03-08T12:52:27.398Z,24.83
2023-03-08T12:55:03.157Z,24.27
2023-03-08T12:57:42.968Z,25.27
2023-03-08T13:00:28.780Z,25.85
2023-03-08T13:05:38.025Z,23.95
2023-03-08T13:08:23.453Z,28.20
2023-03-08T13:11:04.513Z,31.10
2023-03-08T13:13:52.303Z,29.70
2023-03-08T13:16:36.166Z,26.55
2023-03-08T13:19:22.686Z,26.80
2023-03-08T13:22:00.027Z,29.73
2023-03-08T13:24:41.556Z,32.08
2023-03-08T13:27:26.045Z,34.38
2023-03-08T13:30:20.161Z,23.95
2023-03-08T13:32:50.373Z,25.70
2023-03-08T13:35:20.199Z,25.20
2023-03-08T13:37:55.994Z,27.30
2023-03-08T13:40:26.169Z,27.42
2023-03-08T13:42:56.899Z,22.52
2023-03-08T13:45:28.638Z,21.20
2023-03-08T13:48:00.556Z,24.83
2023-03-08T13:50:33.654Z,23.70
2023-03-08T13:53:05.062Z,17.30
2023-03-08T13:55:37.107Z,21.20
2023-03-08T13:58:06.669Z,21.25
2023-03-08T14:00:38.148Z,22.33
2023-03-08T14:03:07.828Z,19.67
2023-03-08T14:05:45.746Z,18.88
2023-03-08T14:08:23.488Z,18.23
2023-03-08T14:10:56.489Z,20.83
2023-03-08T14:13:30.197Z,20.58
2023-03-08T14:16:03.223Z,19.45
2023-03-08T14:18:37.109Z,20.83
2023-03-08T14:21:14.435Z,15.63
2023-03-08T14:23:47.294Z,21.30
2023-03-08T14:26:36.463Z,18.80
2023-03-08T14:29:19.181Z,20.48
2023-03-08T14:32:06.263Z,17.65
2023-03-08T14:34:39.366Z,21.48
2023-03-08T14:37:19.379Z,17.23
2023-03-08T14:39:51.728Z,15.25
2023-03-08T14:42:26.929Z,15.85
2023-03-08T14:44:58.943Z,14.02
2023-03-08T14:47:31.389Z,16.30
2023-03-08T14:50:05.934Z,11.73
2023-03-08T14:52:37.675Z,13.17
2023-03-08T14:55:23.446Z,14.23
2023-03-08T14:57:57.932Z,16.50
2023-03-08T15:00:29.302Z,14.00
2023-03-08T15:03:00.710Z,13.80
2023-03-08T15:05:31.290Z,17.90
2023-03-08T15:08:01.882Z,14.32
2023-03-08T15:10:33.842Z,17.35
2023-03-08T15:13:02.735Z,15.07
2023-03-08T15:15:32.156Z,14.80
2023-03-08T15:18:02.310Z,14.73
2023-03-08T15:20:31.044Z,15.48
2023-03-08T15:23:05.451Z,15.25
2023-03-08T15:25:38.320Z,19.43
2023-03-08T15:28:07.900Z,16.30
2023-03-08T15:30:36.500Z,16.90
2023-03-08T15:33:06.528Z,15.15
2023-03-08T15:35:35.635Z,16.27
2023-03-08T15:38:04.275Z,14.70
2023-03-08T15:40:35.152Z,18.25
2023-03-08T15:43:03.769Z,13.95
2023-03-08T15:45:32.405Z,16.27
2023-03-08T15:48:02.874Z,15.63
2023-03-08T15:50:34.571Z,18.98
2023-03-08T15:53:03.967Z,15.95
2023-03-08T15:55:33.527Z,18.00
2023-03-08T15:58:02.048Z,17.88
2023-03-08T16:00:30.986Z,16.92
2023-03-08T16:02:59.837Z,17.23
2023-03-08T16:05:29.299Z,18.25
2023-03-08T16:08:04.235Z,19.83
2023-03-08T16:10:40.642Z,17.13
2023-03-08T16:13:12.788Z,18.42
2023-03-08T16:15:41.906Z,17.85
2023-03-08T16:18:10.403Z,23.67
2023-03-08T16:20:41.523Z,17.70
2023-03-08T16:23:14.093Z,20.80
2023-03-08T16:25:43.413Z,21.65
2023-03-08T16:28:16.102Z,23.40
2023-03-08T16:30:47.632Z,19.42
2023-03-08T16:33:20.232Z,20.45
2023-03-08T16:36:08.085Z,22.55
2023-03-08T16:38:41.325Z,21.15
2023-03-08T16:41:13.080Z,20.23
2023-03-08T16:43:48.080Z,24.42
2023-03-08T16:46:20.798Z,17.75
2023-03-08T16:48:51.426Z,24.33
2023-03-08T16:51:23.005Z,18.65
2023-03-08T16:53:54.915Z,23.38
2023-03-08T16:56:29.057Z,23.73
2023-03-08T16:59:02.041Z,21.00
2023-03-08T17:01:34.718Z,27.63
2023-03-08T17:04:04.178Z,23.35
2023-03-08T17:06:34.454Z,24.00
2023-03-08T17:09:06.189Z,22.33
2023-03-08T17:11:35.912Z,23.98
2023-03-08T17:14:08.413Z,28.85
2023-03-08T17:16:39.941Z,26.60
2023-03-08T17:19:13.304Z,24.05
2023-03-08T17:21:41.952Z,28.75
2023-03-08T17:24:15.345Z,25.67
2023-03-08T17:26:50.149Z,28.85
2023-03-08T17:29:22.108Z,26.80
2023-03-08T17:31:54.110Z,29.92
2023-03-08T17:34:23.165Z,34.28
2023-03-08T17:36:52.564Z,31.75
2023-03-08T17:39:22.845Z,37.38
2023-03-08T17:41:51.601Z,38.65
2023-03-08T17:44:20.130Z,37.20
2023-03-08T17:46:48.698Z,36.97
2023-03-08T17:49:23.202Z,36.00
2023-03-08T17:51:52.358Z,38.65
2023-03-08T17:54:23.126Z,36.42
2023-03-08T17:56:53.225Z,38.63
2023-03-08T17:59:21.811Z,36.92
2023-03-08T18:01:50.345Z,38.95
2023-03-08T18:04:19.142Z,40.90
2023-03-08T18:06:47.665Z,39.92
2023-03-08T18:09:17.940Z,34.45
2023-03-08T18:11:50.167Z,44.30
2023-03-08T18:14:28.548Z,51.08
2023-03-08T18:17:09.052Z,40.58
2023-03-08T18:19:41.578Z,42.85
2023-03-08T18:22:10.609Z,47.00
2023-03-08T18:24:42.508Z,45.70
2023-03-08T18:27:12.556Z,42.58
2023-03-08T18:29:41.239Z,38.03
2023-03-08T18:32:13.966Z,40.95
2023-03-08T18:34:42.723Z,42.28
2023-03-08T18:37:11.512Z,47.95
2023-03-08T18:39:40.177Z,52.58
2023-03-08T18:42:10.371Z,57.15
2023-03-08T18:44:43.848Z,51.53
2023-03-08T18:47:12.681Z,39.97
2023-03-08T18:49:46.896Z,45.55
2023-03-08T18:52:18.489Z,39.13
2023-03-08T18:54:49.833Z,47.38
2023-03-08T18:57:18.230Z,38.97
2023-03-08T18:59:54.118Z,42.78
2023-03-08T19:02:26.899Z,40.03
2023-03-08T19:04:57.476Z,38.57
2023-03-08T19:07:26.674Z,51.05
2023-03-08T19:09:55.858Z,41.15
2023-03-08T19:12:24.840Z,42.55
2023-03-08T19:14:55.537Z,37.85
2023-03-08T19:17:27.263Z,48.72
2023-03-08T19:19:56.029Z,44.72
2023-03-08T19:22:24.896Z,38.45
2023-03-08T19:24:53.605Z,53.65
2023-03-08T19:27:22.857Z,70.63
2023-03-08T19:29:52.222Z,48.60
2023-03-08T19:32:22.281Z,47.40
2023-03-08T19:34:53.274Z,43.78
2023-03-08T19:37:22.437Z,41.60
2023-03-08T19:39:51.570Z,49.80
2023-03-08T19:42:20.253Z,45.33
2023-03-08T19:44:50.704Z,42.20
2023-03-08T19:47:21.416Z,43.35
2023-03-08T19:49:50.946Z,48.25
2023-03-08T19:52:20.288Z,45.25
2023-03-08T19:54:49.052Z,45.83
2023-03-08T19:57:18.531Z,41.83
2023-03-08T19:59:50.957Z,45.80
2023-03-08T20:02:21.641Z,44.92
2023-03-08T20:04:50.656Z,46.72
2023-03-08T20:07:19.333Z,46.40
2023-03-08T20:09:48.405Z,45.30
2023-03-08T20:12:17.455Z,43.25
2023-03-08T20:14:46.125Z,44.28
2023-03-08T20:17:16.444Z,42.33
2023-03-08T20:19:46.707Z,44.70
2023-03-08T20:22:15.166Z,49.75
2023-03-08T20:24:47.387Z,46.28
2023-03-08T20:27:16.122Z,43.90
2023-03-08T20:29:44.981Z,41.72
2023-03-08T20:32:16.564Z,42.95
2023-03-08T20:34:46.661Z,39.65
2023-03-08T20:37:15.268Z,40.13
2023-03-08T20:39:45.034Z,35.50
2023-03-08T20:42:13.794Z,41.97
2023-03-08T20:44:42.846Z,40.33
2023-03-08T20:47:11.881Z,43.47
2023-03-08T20:49:42.421Z,40.50
2023-03-08T20:52:13.028Z,42.03
2023-03-08T20:54:42.631Z,38.92
2023-03-08T20:57:12.139Z,41.03
2023-03-08T20:59:41.029Z,41.88
2023-03-08T21:02:12.233Z,43.58
2023-03-08T21:04:41.069Z,37.90
2023-03-08T21:07:11.851Z,38.20
2023-03-08T21:09:40.853Z,43.95
2023-03-08T21:12:11.410Z,41.97
2023-03-08T21:14:40.355Z,38.85
2023-03-08T21:17:10.511Z,35.22
2023-03-08T21:19:40.361Z,37.55
2023-03-08T21:22:10.827Z,38.00
2023-03-08T21:24:41.052Z,34.13
2023-03-08T21:27:10.446Z,33.28
2023-03-08T21:29:39.250Z,34.25
2023-03-08T21:32:08.163Z,36.53
2023-03-08T21:34:36.696Z,34.78
2023-03-08T21:37:08.209Z,33.03
2023-03-08T21:39:36.857Z,37.30
2023-03-08T21:42:08.308Z,35.75
2023-03-08T21:44:38.346Z,44.15
2023-03-08T21:47:07.767Z,42.10
2023-03-08T21:49:36.953Z,39.65
2023-03-08T21:52:06.429Z,40.90
2023-03-08T21:54:34.998Z,34.95
2023-03-08T21:57:03.700Z,35.05
2023-03-08T21:59:33.834Z,36.63
2023-03-08T22:02:03.173Z,32.25
2023-03-08T22:04:32.112Z,34.17
2023-03-08T22:07:03.880Z,31.80
2023-03-08T22:09:32.970Z,29.00
2023-03-08T22:12:01.796Z,28.30
2023-03-08T22:14:33.416Z,33.90
2023-03-08T22:17:03.438Z,31.45
2023-03-08T22:19:32.478Z,29.73
2023-03-08T22:22:01.172Z,29.67
2023-03-08T22:24:32.656Z,33.47
2023-03-08T22:27:01.868Z,33.05
2023-03-08T22:29:37.319Z,36.17
2023-03-08T22:32:11.296Z,30.90
2023-03-08T22:34:50.108Z,33.42
2023-03-08T22:37:30.101Z,33.25
2023-03-08T22:40:03.008Z,33.30
2023-03-08T22:42:32.531Z,36.88
2023-03-08T22:45:05.419Z,39.75
2023-03-08T22:58:58.349Z,30.25
2023-03-08T23:01:30.837Z,28.27
2023-03-08T23:04:02.634Z,23.65
2023-03-08T23:06:33.975Z,25.35
2023-03-08T23:09:07.839Z,26.80
2023-03-08T23:11:39.849Z,24.05
2023-03-08T23:14:10.615Z,21.08
2023-03-08T23:16:43.525Z,20.65
2023-03-08T23:19:16.149Z,19.88
2023-03-08T23:21:46.102Z,19.95
2023-03-08T23:24:18.024Z,23.33
2023-03-08T23:26:47.528Z,20.85
2023-03-08T23:29:17.372Z,21.67
2023-03-08T23:31:50.591Z,26.25
2023-03-08T23:34:19.117Z,24.52
2023-03-08T23:36:47.834Z,29.02
2023-03-08T23:39:16.895Z,28.15
2023-03-08T23:41:47.879Z,25.05
2023-03-08T23:44:18.228Z,23.73
2023-03-08T23:46:48.625Z,23.85
2023-03-08T23:49:18.027Z,22.15
2023-03-08T23:51:47.322Z,19.42
2023-03-08T23:54:17.393Z,22.38
2023-03-08T23:56:46.296Z,19.90
2023-03-08T23:59:18.791Z,20.52
